Angus, Minnesota
Current Conditions -  °F | °C
As of 4:55 PM on Thursday 20 Nov 2014 (Local Time) from KCKN Reporting Station
Clear Clear  
Wind Chill: -3°   Ceiling: Unl
Heat Index:   Visibility: 10mi
Dew Point:   Wind: 7mph
Humidity: 73%   Direction: 150°SSE
Pressure: 30.14"   Gusts: NA
Location:  48.08°N, 96.7°W
Report Text: KCKN 202255Z AUTO 15006KT 10SM CLR M13/M17 A3014 RMK AO2
Loading
Personal Weather Stations






























Interactive Weather Map New forecast layout! Learn more

10-Day Weather Forecast

Advertisements
Track Severe Weather on mobile